Portada
METAR-TAF:

METAR-TAF

Aeroports :

Tawau, Malàisia

latitud: 04-16N, longitud: 117-53E, altitud: 18 m

Observació

L'informe es va fer fa 31 minuts, a les 08:00 UTC
Vent 7 kt del Sud/Sud-Est, variant entre Est/Sud-Est i Sud/Sud-Oest
Temperatura 29°C
Humitat 79%
Pressió 1005 hPa
Visibilitat 10 km o més
Escasses núvols a una alçada de 1700 ft

METAR: WBKW 300800Z 15007KT 120V210 9999 FEW017 29/25 Q1005

Hora: 16:31 (08:31 UTC)

Pronòstic

L'informe es va fer fa 3 hores i 31 minuts, a les 05:00 UTC
Pronòstic vàlid del 30 a les 06 UTC al 01 a les 06 UTC
Vent 5 kt del Sud
Visibilitat 10 km o més
Escasses núvols a una alçada de 1700 ft
Temporalment
l' 30 a les 07 UTC al 30 a les 10 UTC
Visibilitat: 5000 m
Escasses núvols a una alçada de 1500 ft, Cumulonimbus.
Núvols disperses a una alçada de 3000 ft
pluja

TAF: WBKW 300500Z 3006/0106 19005KT 9999 FEW017 TEMPO 3007/3010 5000 RA FEW015CB SCT030

Observacions i pronòstics meteorològics de més de 4000 aeroports (METAR i TAF).

Les estacions disponibles són els punts grocs i vermells al mapa.

Posi el ratolí al punt desitjat per veure el nom de l'estació.

Feu clic per veure les observacions i els pronòstics meteorològics.

Per canviar el mapa: feu clic els botons verds amb una creu de color negre per apropar; al botó verd amb un guió per allunyar la imatge; o en les fletxes verdes per a mapes adjacents.


METAR-TAF: